logo
Rechercher aéroport 
image banner adimage banner adimage banner ad
image banner ad

CA85 - Opus Center Irvine

Situé à Irvine, United States

ICAO - CA85, IATA -

Données fournies par Airmate  

Information générale

Coordonnées: N33°41'1" W117°51'12"
Élévation : 36 feet MSL.
Variation magnétique : 14° East
Voir autres Aéroports à California

Données opérationnelles

Special qualification required
Heure actuelle UTC:
Heure actuelle locale:
METAR: KSNA 261453Z 00000KT 9SM CLR 22/17 A2992 RMK AO2 SLP130 T02220172 53012
TAF: KSNA 261120Z 2612/2712 VRB03KT P6SM SKC FM261800 23009KT P6SM SKC FM270300 VRB04KT P6SM SKC
Voir NOTAMs / SUP AIP / TFR affectant cet aéroport [VIEW]
Fréquences de communication: [VIEW]

Pistes:

Coordonnées de l'aéroport

Adresse: Irvine United States

Vue satellite de CA85